Time;durP1;ratioP1;P1;durP2;ratioP2;P2;SDS_P1;SDS_P2;PMS_P1;PMS_P2;Temp;Humidity;BMP_temperature;BMP_pressure;BME280_temperature;BME280_humidity;BME280_pressure;Samples;Min_cycle;Max_cycle;Signal;HPM_P1;HPM_P2
2021/06/11 00:01:30;;;;;;;5.15;4.05;;;14.80;99.90;;;;;;5051155;28;20094;-78
2021/06/11 00:03:56;;;;;;;5.22;4.00;;;14.70;99.90;;;;;;5052365;28;20029;-77
2021/06/11 00:06:21;;;;;;;5.40;3.85;;;14.70;99.90;;;;;;5039052;28;20029;-78
2021/06/11 00:08:47;;;;;;;5.45;4.18;;;14.70;99.90;;;;;;5042727;28;20092;-77
2021/06/11 00:11:13;;;;;;;4.20;3.53;;;14.70;99.90;;;;;;5052921;28;20120;-77
2021/06/11 00:13:39;;;;;;;4.00;3.55;;;14.70;99.90;;;;;;5051601;28;20039;-77
2021/06/11 00:16:05;;;;;;;5.28;4.10;;;14.80;99.90;;;;;;5050742;28;20112;-77
2021/06/11 00:18:30;;;;;;;3.50;3.20;;;14.80;99.90;;;;;;5051683;28;20495;-77
2021/06/11 00:20:57;;;;;;;3.55;3.25;;;14.80;99.90;;;;;;5045493;28;20087;-77
2021/06/11 00:23:23;;;;;;;3.53;3.20;;;14.80;99.90;;;;;;5043398;28;20033;-77
2021/06/11 00:25:49;;;;;;;4.80;3.88;;;14.70;99.90;;;;;;5046210;28;20619;-78
2021/06/11 00:28:15;;;;;;;4.15;3.65;;;14.70;99.90;;;;;;5044510;28;20491;-77
2021/06/11 00:30:41;;;;;;;6.00;3.55;;;14.70;99.90;;;;;;5046938;28;20071;-77
2021/06/11 00:33:08;;;;;;;5.03;3.83;;;14.60;99.90;;;;;;5049761;28;20044;-78
2021/06/11 00:35:35;;;;;;;4.13;3.72;;;14.60;99.90;;;;;;5040030;28;20029;-78
2021/06/11 00:38:01;;;;;;;5.07;4.00;;;14.50;99.90;;;;;;5043921;28;20029;-77
2021/06/11 00:40:27;;;;;;;4.05;3.63;;;14.50;99.90;;;;;;5043332;28;20024;-77
2021/06/11 00:42:53;;;;;;;4.45;3.92;;;14.50;99.90;;;;;;5047536;28;20519;-77
2021/06/11 00:45:19;;;;;;;4.68;3.78;;;14.40;99.90;;;;;;5042518;28;20033;-76
2021/06/11 00:47:47;;;;;;;5.20;4.28;;;14.40;99.90;;;;;;5045274;28;20103;-77
2021/06/11 00:50:16;;;;;;;4.88;4.38;;;14.40;99.90;;;;;;5033862;28;20112;-78
2021/06/11 00:52:42;;;;;;;4.32;3.88;;;14.30;99.90;;;;;;5051108;28;20454;-77
2021/06/11 00:55:09;;;;;;;5.72;4.60;;;14.30;99.90;;;;;;5046860;28;20042;-78
2021/06/11 00:57:35;;;;;;;5.30;4.43;;;14.30;99.90;;;;;;5045962;28;20135;-78
2021/06/11 01:00:02;;;;;;;6.53;4.40;;;14.30;99.90;;;;;;5048549;28;20102;-77
2021/06/11 01:02:28;;;;;;;5.47;4.20;;;14.20;99.90;;;;;;5039820;28;20077;-77
2021/06/11 01:04:53;;;;;;;6.75;4.30;;;14.20;99.90;;;;;;5035574;28;20122;-77
2021/06/11 01:07:22;;;;;;;6.35;4.82;;;14.20;99.90;;;;;;5040855;28;20041;-77
2021/06/11 01:09:49;;;;;;;4.82;4.32;;;14.20;99.90;;;;;;5048556;28;20112;-78
2021/06/11 01:12:16;;;;;;;5.40;4.85;;;14.20;99.90;;;;;;5036418;28;20113;-77
2021/06/11 01:14:42;;;;;;;6.50;4.43;;;14.20;99.90;;;;;;5034963;28;20107;-78
2021/06/11 01:17:09;;;;;;;5.63;4.53;;;14.10;99.90;;;;;;5050136;28;20045;-78
2021/06/11 01:19:46;;;;;;;4.97;4.28;;;14.10;99.90;;;;;;5049584;28;20037;-77
2021/06/11 01:22:30;;;;;;;6.07;4.93;;;14.10;99.90;;;;;;5048631;28;20029;-77
2021/06/11 01:25:10;;;;;;;6.82;4.88;;;14.10;99.90;;;;;;5048466;28;20104;-77
2021/06/11 01:27:37;;;;;;;5.55;4.50;;;14.10;99.90;;;;;;5057928;28;20450;-77
2021/06/11 01:30:14;;;;;;;5.72;4.65;;;14.10;99.90;;;;;;5063528;28;20152;-77
2021/06/11 01:32:41;;;;;;;6.00;4.35;;;14.00;99.90;;;;;;5053076;28;20029;-77
2021/06/11 01:35:13;;;;;;;5.90;4.85;;;14.00;99.90;;;;;;5062844;28;20041;-78
2021/06/11 01:37:39;;;;;;;7.03;4.90;;;13.90;99.90;;;;;;5042472;28;20035;-78
2021/06/11 01:40:07;;;;;;;5.78;4.38;;;13.90;99.90;;;;;;5050643;28;20029;-78
2021/06/11 01:42:36;;;;;;;5.53;4.25;;;13.90;99.90;;;;;;5049766;28;20025;-77
2021/06/11 01:45:10;;;;;;;5.82;4.57;;;13.80;99.90;;;;;;5041364;28;20063;-77
2021/06/11 01:47:42;;;;;;;5.57;4.78;;;13.80;99.90;;;;;;5049523;28;20021;-77
2021/06/11 01:50:10;;;;;;;6.63;4.75;;;13.80;99.90;;;;;;5049746;28;20036;-77
2021/06/11 01:52:37;;;;;;;5.65;4.40;;;13.70;99.90;;;;;;5037405;28;20524;-77
2021/06/11 01:55:04;;;;;;;4.95;4.00;;;13.70;99.90;;;;;;5044062;28;20067;-76
2021/06/11 01:57:30;;;;;;;5.72;4.63;;;13.70;99.90;;;;;;5048034;28;20041;-76
2021/06/11 01:59:57;;;;;;;6.05;5.07;;;13.70;99.90;;;;;;5047050;28;20103;-76
2021/06/11 02:02:23;;;;;;;6.65;4.97;;;13.70;99.90;;;;;;5041838;28;20039;-77
2021/06/11 02:04:49;;;;;;;6.80;4.95;;;13.70;99.90;;;;;;5046148;28;20547;-77
2021/06/11 02:07:15;;;;;;;6.43;4.93;;;13.70;99.90;;;;;;5040311;28;20120;-76
2021/06/11 02:12:17;;;;;;;6.10;4.80;;;13.70;99.90;;;;;;5141587;27;20140;-76
2021/06/11 02:14:44;;;;;;;6.47;4.63;;;13.70;99.90;;;;;;5116727;28;20393;-77
2021/06/11 02:17:11;;;;;;;4.97;4.28;;;13.70;99.90;;;;;;5123312;28;20032;-78
2021/06/11 02:19:39;;;;;;;5.53;4.15;;;13.70;99.90;;;;;;5112801;28;20028;-76
2021/06/11 02:22:06;;;;;;;5.75;4.65;;;13.60;99.90;;;;;;5119136;28;20482;-77
2021/06/11 02:24:33;;;;;;;6.80;4.82;;;13.70;99.90;;;;;;5114120;28;20039;-76
2021/06/11 02:27:02;;;;;;;6.15;4.35;;;13.70;99.90;;;;;;5111183;28;20095;-77
2021/06/11 02:29:28;;;;;;;6.00;4.95;;;13.60;99.90;;;;;;5129022;28;20093;-78
2021/06/11 02:31:53;;;;;;;5.50;4.20;;;13.60;99.90;;;;;;5111041;28;20031;-77
2021/06/11 02:34:19;;;;;;;5.72;4.82;;;13.50;99.90;;;;;;5118855;27;20118;-78
2021/06/11 02:36:45;;;;;;;5.95;4.57;;;13.50;99.90;;;;;;5146013;27;20042;-77
2021/06/11 02:39:10;;;;;;;5.65;4.28;;;13.40;99.90;;;;;;5125033;28;20036;-77
2021/06/11 02:41:41;;;;;;;5.78;4.82;;;13.40;99.90;;;;;;5128909;27;20084;-77
2021/06/11 02:44:08;;;;;;;6.03;4.55;;;13.40;99.90;;;;;;5115253;28;20081;-77
2021/06/11 02:46:50;;;;;;;6.55;4.50;;;13.30;99.90;;;;;;5127751;27;20393;-77
2021/06/11 02:49:32;;;;;;;4.95;3.97;;;13.30;99.90;;;;;;5125912;28;20031;-77
2021/06/11 02:52:01;;;;;;;7.82;5.13;;;13.20;99.90;;;;;;5127136;28;20027;-77
2021/06/11 02:54:34;;;;;;;5.78;4.70;;;13.20;99.90;;;;;;5123722;27;20390;-77
2021/06/11 02:57:22;;;;;;;5.65;4.68;;;13.20;99.90;;;;;;5117547;28;20451;-77
2021/06/11 03:00:00;;;;;;;4.78;3.97;;;13.20;99.90;;;;;;5108097;28;20069;-77
2021/06/11 03:02:51;;;;;;;6.25;4.70;;;13.20;99.90;;;;;;5125852;28;20024;-77
2021/06/11 03:05:19;;;;;;;5.80;4.97;;;13.10;99.90;;;;;;5116604;28;20046;-77
2021/06/11 03:07:47;;;;;;;6.03;4.63;;;13.10;99.90;;;;;;5128052;28;20118;-77
2021/06/11 03:10:16;;;;;;;5.22;4.10;;;13.00;99.90;;;;;;5125016;28;20056;-77
2021/06/11 03:12:43;;;;;;;4.97;4.47;;;13.00;99.90;;;;;;5115025;28;20476;-77
2021/06/11 03:15:10;;;;;;;5.10;4.60;;;13.10;99.90;;;;;;5127836;28;20050;-77
2021/06/11 03:17:46;;;;;;;6.63;4.50;;;13.10;99.90;;;;;;5119898;28;20027;-77
2021/06/11 03:20:17;;;;;;;5.45;4.40;;;13.10;99.90;;;;;;5113730;28;20054;-77
2021/06/11 03:23:08;;;;;;;6.45;5.25;;;13.10;99.90;;;;;;5102936;28;20546;-77
2021/06/11 03:25:53;;;;;;;6.22;5.15;;;13.10;99.90;;;;;;5113132;28;20036;-77
2021/06/11 03:28:37;;;;;;;5.70;4.68;;;13.10;99.90;;;;;;5105240;28;20028;-77
2021/06/11 03:31:05;;;;;;;6.68;5.32;;;13.10;99.90;;;;;;5112123;28;20563;-77
2021/06/11 03:33:37;;;;;;;7.00;4.88;;;13.10;99.90;;;;;;5114367;28;20470;-77
2021/06/11 03:36:20;;;;;;;4.90;4.15;;;13.10;99.90;;;;;;5112318;28;20055;-77
2021/06/11 03:38:50;;;;;;;5.43;4.43;;;13.10;99.90;;;;;;5113798;28;20029;-77
2021/06/11 03:41:17;;;;;;;7.95;4.10;;;13.10;99.90;;;;;;5105582;28;20485;-77
2021/06/11 03:43:44;;;;;;;6.47;4.30;;;13.10;99.90;;;;;;5101476;28;20024;-77
2021/06/11 03:46:11;;;;;;;5.40;4.43;;;13.20;99.90;;;;;;5112279;28;20458;-77
2021/06/11 03:48:38;;;;;;;5.78;4.35;;;13.20;99.90;;;;;;5093430;28;20402;-77
2021/06/11 03:51:06;;;;;;;5.15;4.10;;;13.20;99.90;;;;;;5099837;28;20679;-78
2021/06/11 03:53:35;;;;;;;5.75;4.68;;;13.30;99.90;;;;;;5092830;28;20043;-77
2021/06/11 03:56:07;;;;;;;5.85;4.18;;;13.30;99.90;;;;;;5095567;28;20034;-77
2021/06/11 03:58:44;;;;;;;5.28;4.32;;;13.40;99.90;;;;;;5113127;28;20035;-77
2021/06/11 04:01:19;;;;;;;6.35;4.60;;;13.50;99.90;;;;;;5112081;28;20050;-77
2021/06/11 04:03:45;;;;;;;5.97;4.93;;;13.50;99.90;;;;;;5109920;28;20393;-78
2021/06/11 04:06:14;;;;;;;6.00;4.57;;;13.60;99.90;;;;;;5106851;28;20036;-78
2021/06/11 04:08:40;;;;;;;5.45;4.10;;;13.70;99.90;;;;;;5095124;28;20044;-77
2021/06/11 04:11:10;;;;;;;4.93;4.38;;;13.80;99.90;;;;;;5099008;28;20032;-78
2021/06/11 04:13:42;;;;;;;4.90;4.20;;;13.90;99.90;;;;;;5099489;28;20064;-78
2021/06/11 04:16:15;;;;;;;5.13;4.55;;;14.00;99.90;;;;;;5108323;28;20020;-77
2021/06/11 04:18:42;;;;;;;5.70;4.25;;;14.10;99.90;;;;;;5100933;28;20058;-78
2021/06/11 04:21:15;;;;;;;4.18;3.78;;;14.10;99.90;;;;;;5100725;28;20402;-77
2021/06/11 04:23:43;;;;;;;5.82;4.22;;;14.10;99.90;;;;;;5099727;28;20028;-78
2021/06/11 04:26:11;;;;;;;5.00;4.25;;;14.20;99.90;;;;;;5097211;28;20123;-77
2021/06/11 04:28:38;;;;;;;6.70;4.63;;;14.30;99.90;;;;;;5102091;28;20467;-77
2021/06/11 04:31:04;;;;;;;4.90;3.97;;;14.30;99.90;;;;;;5098616;28;20035;-77
2021/06/11 04:33:30;;;;;;;5.60;4.50;;;14.30;99.90;;;;;;5102821;28;20024;-77
2021/06/11 04:35:56;;;;;;;4.93;4.22;;;14.30;99.90;;;;;;5106401;28;20513;-77
2021/06/11 04:38:23;;;;;;;6.90;5.40;;;14.40;99.90;;;;;;5076833;28;20027;-77
2021/06/11 04:40:50;;;;;;;5.22;4.70;;;14.40;99.90;;;;;;5106547;27;20051;-77
2021/06/11 04:43:17;;;;;;;5.85;4.93;;;14.50;99.90;;;;;;5106949;28;20036;-77
2021/06/11 04:45:43;;;;;;;6.45;5.18;;;14.60;99.90;;;;;;5088214;28;20036;-77
2021/06/11 04:48:09;;;;;;;12.05;5.78;;;14.70;99.90;;;;;;5112349;28;20046;-78
2021/06/11 04:50:35;;;;;;;8.18;5.80;;;14.70;99.90;;;;;;5097169;28;20020;-77
2021/06/11 04:53:01;;;;;;;10.82;5.97;;;14.80;99.90;;;;;;5092293;28;20028;-77
2021/06/11 04:55:26;;;;;;;11.52;6.75;;;14.90;99.90;;;;;;5090941;28;20050;-77
2021/06/11 04:57:54;;;;;;;11.68;7.00;;;14.90;99.90;;;;;;5096054;28;20081;-77
2021/06/11 05:00:21;;;;;;;8.77;6.18;;;15.00;99.90;;;;;;5100080;28;20031;-77
2021/06/11 05:02:47;;;;;;;12.35;7.28;;;15.10;99.90;;;;;;5096195;28;20032;-77
2021/06/11 05:05:12;;;;;;;11.25;8.27;;;15.10;99.90;;;;;;5100614;28;20046;-77
2021/06/11 05:07:38;;;;;;;9.88;7.00;;;15.20;99.90;;;;;;5094649;28;20745;-77
2021/06/11 05:10:05;;;;;;;9.55;6.90;;;15.30;99.90;;;;;;5097427;28;20042;-77
2021/06/11 05:12:31;;;;;;;10.73;7.40;;;15.40;99.90;;;;;;5105542;27;20110;-77
2021/06/11 05:14:57;;;;;;;11.35;7.97;;;15.40;99.90;;;;;;5099843;28;20132;-77
2021/06/11 05:17:22;;;;;;;10.68;7.38;;;15.50;99.90;;;;;;5107324;28;20050;-77
2021/06/11 05:19:48;;;;;;;11.52;7.90;;;15.60;99.90;;;;;;5094036;28;20055;-78
2021/06/11 05:22:14;;;;;;;13.65;9.20;;;15.70;99.90;;;;;;5112249;28;20032;-77
2021/06/11 05:24:39;;;;;;;14.60;8.88;;;15.90;99.90;;;;;;5101898;28;20116;-77
2021/06/11 05:27:05;;;;;;;12.15;8.68;;;15.90;99.90;;;;;;5107949;28;20043;-77
2021/06/11 05:29:31;;;;;;;17.50;10.02;;;16.00;99.90;;;;;;5095095;28;20035;-77
2021/06/11 05:31:57;;;;;;;13.48;9.73;;;16.30;99.90;;;;;;5100478;28;20107;-77
2021/06/11 05:34:23;;;;;;;13.40;9.77;;;16.60;99.90;;;;;;5111404;27;20056;-77
2021/06/11 05:36:48;;;;;;;12.60;9.25;;;17.00;99.90;;;;;;5102123;27;20074;-77
2021/06/11 05:39:14;;;;;;;10.63;8.27;;;17.60;99.90;;;;;;5095678;28;20039;-78
2021/06/11 05:41:40;;;;;;;8.32;7.07;;;18.20;99.90;;;;;;5106100;28;20077;-77
2021/06/11 05:44:06;;;;;;;9.70;7.13;;;18.90;99.90;;;;;;5094736;28;20437;-77
2021/06/11 05:46:33;;;;;;;9.75;6.97;;;19.50;99.90;;;;;;5096894;28;20028;-77
2021/06/11 05:48:58;;;;;;;8.23;6.93;;;20.10;99.90;;;;;;5102242;28;20031;-77
2021/06/11 05:51:24;;;;;;;10.35;7.40;;;20.70;99.90;;;;;;5098760;28;20028;-77
2021/06/11 05:53:51;;;;;;;9.70;7.65;;;21.30;99.90;;;;;;5103066;28;20024;-77
2021/06/11 05:56:17;;;;;;;8.30;6.68;;;21.70;99.90;;;;;;5107011;28;20028;-77
2021/06/11 05:58:42;;;;;;;7.75;6.30;;;22.10;99.90;;;;;;5107500;28;20035;-77
2021/06/11 06:01:08;;;;;;;7.07;5.85;;;22.50;99.90;;;;;;5090952;28;20028;-77
2021/06/11 06:03:34;;;;;;;7.45;6.25;;;22.80;99.90;;;;;;5090884;28;20152;-77
2021/06/11 06:05:59;;;;;;;7.63;6.45;;;23.20;99.90;;;;;;5093054;28;20035;-77
2021/06/11 06:08:25;;;;;;;7.20;5.80;;;23.50;99.90;;;;;;5102440;28;20514;-77
2021/06/11 06:10:51;;;;;;;8.73;5.97;;;23.70;99.90;;;;;;5097887;28;20110;-77
2021/06/11 06:13:17;;;;;;;7.25;5.72;;;24.00;99.90;;;;;;5102857;28;20028;-77
2021/06/11 06:15:43;;;;;;;6.25;5.10;;;24.20;99.90;;;;;;5103580;28;20026;-77
2021/06/11 06:18:09;;;;;;;6.05;5.45;;;24.40;99.90;;;;;;5093064;28;20483;-77
2021/06/11 06:20:37;;;;;;;5.75;5.10;;;24.40;99.90;;;;;;5093010;28;20412;-77
2021/06/11 06:23:02;;;;;;;6.68;5.13;;;24.50;99.90;;;;;;5098525;28;20081;-77
2021/06/11 06:25:28;;;;;;;5.95;5.28;;;24.70;99.90;;;;;;5094473;28;20129;-77
2021/06/11 06:27:54;;;;;;;5.72;5.18;;;25.00;99.90;;;;;;5092220;28;20089;-77
2021/06/11 06:30:22;;;;;;;6.57;5.40;;;25.40;99.90;;;;;;5104792;28;20111;-77
2021/06/11 06:32:48;;;;;;;6.90;4.88;;;25.80;99.90;;;;;;5105293;28;20474;-77
2021/06/11 06:35:14;;;;;;;6.22;5.50;;;26.20;99.90;;;;;;5101983;28;20078;-77
2021/06/11 06:37:40;;;;;;;5.97;5.38;;;26.40;99.90;;;;;;5097523;28;20093;-77
2021/06/11 06:40:07;;;;;;;6.57;5.47;;;26.70;99.90;;;;;;5101300;28;20020;-77
2021/06/11 06:42:33;;;;;;;5.43;4.93;;;27.00;99.90;;;;;;5100903;28;20414;-77
2021/06/11 06:44:59;;;;;;;6.45;4.93;;;27.10;98.70;;;;;;5092377;28;20024;-77
2021/06/11 06:47:25;;;;;;;5.93;5.38;;;27.20;98.00;;;;;;5079079;28;20033;-77
2021/06/11 06:49:51;;;;;;;6.15;5.47;;;27.40;97.60;;;;;;5100786;28;20024;-77
2021/06/11 06:52:18;;;;;;;6.93;5.25;;;27.30;97.20;;;;;;5102622;28;20375;-78
2021/06/11 06:54:44;;;;;;;6.07;5.18;;;27.50;94.10;;;;;;5104207;28;20164;-77
2021/06/11 06:57:13;;;;;;;5.72;5.10;;;27.40;95.20;;;;;;5105524;28;20198;-77
2021/06/11 06:59:38;;;;;;;5.50;5.00;;;27.80;94.80;;;;;;5102737;28;20016;-77
2021/06/11 07:02:04;;;;;;;7.03;5.15;;;28.20;93.10;;;;;;5110952;27;20398;-77
2021/06/11 07:04:30;;;;;;;6.10;5.50;;;28.60;90.40;;;;;;5108341;28;20035;-77
2021/06/11 07:06:57;;;;;;;6.32;5.72;;;28.60;90.40;;;;;;5110125;27;20039;-77
2021/06/11 07:09:23;;;;;;;5.85;5.25;;;29.00;87.20;;;;;;5112154;28;20117;-77
2021/06/11 07:11:49;;;;;;;6.28;5.70;;;29.20;86.00;;;;;;5108865;28;20098;-78
2021/06/11 07:14:18;;;;;;;6.90;6.20;;;29.50;78.40;;;;;;5110810;28;20547;-77
2021/06/11 07:16:45;;;;;;;6.68;6.05;;;29.40;80.40;;;;;;5112996;28;20019;-78
2021/06/11 07:19:11;;;;;;;8.02;7.22;;;29.60;77.00;;;;;;5105283;28;20024;-77
2021/06/11 07:21:37;;;;;;;6.50;5.65;;;29.80;76.80;;;;;;5105512;28;20027;-77
2021/06/11 07:24:04;;;;;;;6.13;5.53;;;30.10;76.50;;;;;;5101308;27;20112;-77
2021/06/11 07:26:29;;;;;;;7.22;6.53;;;30.20;76.20;;;;;;5112658;28;20516;-77
2021/06/11 07:28:55;;;;;;;8.38;7.18;;;30.20;75.30;;;;;;5110578;28;20036;-77
2021/06/11 07:31:21;;;;;;;8.68;7.78;;;30.10;75.30;;;;;;5105384;28;20051;-77
2021/06/11 07:33:47;;;;;;;8.25;6.97;;;30.00;70.00;;;;;;5085205;28;20035;-77
2021/06/11 07:36:13;;;;;;;8.75;7.85;;;29.90;71.10;;;;;;5107683;27;20027;-77
2021/06/11 07:38:39;;;;;;;10.88;9.07;;;30.00;69.50;;;;;;5112093;28;20027;-77
2021/06/11 07:41:05;;;;;;;10.98;9.38;;;30.10;68.20;;;;;;5113806;28;20057;-77
2021/06/11 07:43:30;;;;;;;9.73;7.93;;;29.90;65.10;;;;;;5109296;28;20087;-78
2021/06/11 07:45:56;;;;;;;10.30;8.63;;;29.60;70.70;;;;;;5109476;28;20092;-77
2021/06/11 07:48:22;;;;;;;11.50;9.40;;;29.70;68.20;;;;;;5105254;28;20106;-77
2021/06/11 07:50:48;;;;;;;10.18;8.63;;;29.50;71.70;;;;;;5099144;28;20032;-77
2021/06/11 07:53:14;;;;;;;12.57;9.05;;;29.50;68.60;;;;;;5106846;28;20103;-77
2021/06/11 07:55:41;;;;;;;11.15;8.70;;;29.30;69.90;;;;;;5103603;28;20043;-77
2021/06/11 07:58:06;;;;;;;14.13;9.63;;;29.50;66.40;;;;;;5087904;28;20060;-77
2021/06/11 08:00:32;;;;;;;11.20;8.30;;;29.30;66.50;;;;;;5097409;27;20426;-77
2021/06/11 08:03:00;;;;;;;14.73;10.73;;;29.20;66.00;;;;;;5100857;27;20024;-77
2021/06/11 08:05:27;;;;;;;10.40;9.35;;;29.30;62.40;;;;;;5097203;28;20034;-78
2021/06/11 08:07:53;;;;;;;10.38;8.95;;;29.20;61.20;;;;;;5099853;28;20028;-77
2021/06/11 08:10:20;;;;;;;10.38;9.27;;;29.00;65.40;;;;;;5094105;28;20175;-77
2021/06/11 08:12:46;;;;;;;12.60;11.10;;;28.90;63.50;;;;;;5102368;28;20020;-78
2021/06/11 08:15:13;;;;;;;12.52;11.13;;;28.60;64.70;;;;;;5098382;28;20032;-78
2021/06/11 08:17:39;;;;;;;12.02;9.90;;;28.10;70.50;;;;;;5093502;28;20024;-77
2021/06/11 08:20:07;;;;;;;12.82;9.02;;;28.00;70.90;;;;;;5096825;28;20117;-77
2021/06/11 08:22:33;;;;;;;12.48;10.50;;;28.10;70.60;;;;;;5103052;28;20031;-78
2021/06/11 08:24:59;;;;;;;13.13;10.40;;;28.30;71.10;;;;;;5097647;28;20036;-77
2021/06/11 08:27:24;;;;;;;13.55;10.93;;;28.40;70.90;;;;;;5091937;27;20177;-77
2021/06/11 08:29:50;;;;;;;12.93;10.07;;;28.30;66.70;;;;;;5096655;28;20034;-77
2021/06/11 08:32:16;;;;;;;13.32;11.32;;;27.90;69.20;;;;;;5097648;28;20118;-77
2021/06/11 08:34:43;;;;;;;11.60;10.23;;;27.40;70.50;;;;;;5100847;27;20019;-77
2021/06/11 08:37:09;;;;;;;16.42;12.07;;;27.00;73.30;;;;;;5094854;28;20040;-77
2021/06/11 08:39:35;;;;;;;12.38;10.30;;;26.90;69.40;;;;;;5096405;28;20677;-77
2021/06/11 08:42:04;;;;;;;12.00;10.63;;;26.70;73.50;;;;;;5101885;28;20569;-77
2021/06/11 08:44:30;;;;;;;12.48;10.75;;;26.80;75.10;;;;;;5105063;28;20040;-77
2021/06/11 08:46:56;;;;;;;11.82;10.40;;;26.80;70.50;;;;;;5099686;28;20477;-76
2021/06/11 08:49:24;;;;;;;12.55;10.07;;;27.00;70.60;;;;;;5101110;28;20042;-76
2021/06/11 08:51:51;;;;;;;11.45;9.82;;;27.20;74.60;;;;;;5103385;28;20101;-77
2021/06/11 08:54:17;;;;;;;10.57;9.48;;;27.70;68.30;;;;;;5099127;27;20527;-76
2021/06/11 08:56:43;;;;;;;11.98;9.38;;;28.10;71.40;;;;;;5100965;27;20030;-77
2021/06/11 08:59:09;;;;;;;9.93;8.93;;;28.30;66.50;;;;;;5111306;28;20064;-76
2021/06/11 09:01:35;;;;;;;10.13;7.57;;;28.60;64.40;;;;;;5108546;28;20028;-77
2021/06/11 09:04:00;;;;;;;11.15;8.68;;;28.60;68.80;;;;;;5100352;28;20570;-77
2021/06/11 09:06:26;;;;;;;7.93;7.22;;;28.80;70.20;;;;;;5097960;28;20080;-77
2021/06/11 09:08:54;;;;;;;12.38;9.88;;;28.90;71.30;;;;;;5106800;28;20031;-77
2021/06/11 09:11:26;;;;;;;10.80;9.32;;;29.00;65.10;;;;;;5102814;28;20548;-76
2021/06/11 09:14:11;;;;;;;9.25;7.53;;;28.70;66.40;;;;;;5107556;28;20108;-77
2021/06/11 09:16:44;;;;;;;10.18;7.78;;;28.40;68.50;;;;;;5104248;28;20030;-77
2021/06/11 09:19:18;;;;;;;8.43;7.63;;;27.80;71.10;;;;;;5103084;28;20120;-77
2021/06/11 09:21:46;;;;;;;8.57;7.78;;;27.60;76.00;;;;;;5102606;28;20028;-77
2021/06/11 09:27:01;;;;;;;8.02;7.18;;;27.10;77.20;;;;;;5089428;28;20176;-77
2021/06/11 09:29:29;;;;;;;8.85;7.90;;;26.80;77.10;;;;;;5100575;28;20074;-78
2021/06/11 09:32:10;;;;;;;11.43;8.07;;;26.70;77.60;;;;;;5100469;28;20036;-77
2021/06/11 09:34:36;;;;;;;9.60;8.23;;;26.60;73.60;;;;;;5094790;28;20028;-77
2021/06/11 09:37:03;;;;;;;10.07;8.35;;;26.30;73.00;;;;;;5098658;28;20077;-77
2021/06/11 09:39:45;;;;;;;8.93;8.13;;;26.10;72.20;;;;;;5103250;28;20039;-77
2021/06/11 09:42:13;;;;;;;8.90;8.00;;;25.80;72.90;;;;;;5099188;28;20035;-77
2021/06/11 09:44:39;;;;;;;8.50;7.22;;;25.60;76.30;;;;;;5098897;28;20046;-77
2021/06/11 09:47:04;;;;;;;7.43;6.47;;;25.20;77.00;;;;;;5098540;28;20032;-77
2021/06/11 09:49:41;;;;;;;8.80;7.90;;;25.20;79.60;;;;;;5094656;28;20036;-77
2021/06/11 09:52:10;;;;;;;7.55;6.28;;;25.10;81.90;;;;;;5097914;28;20448;-77
2021/06/11 09:54:36;;;;;;;6.35;5.70;;;25.10;80.20;;;;;;5101630;28;20031;-77
2021/06/11 09:57:19;;;;;;;8.32;5.82;;;25.20;85.30;;;;;;5099984;28;20024;-77
2021/06/11 09:59:44;;;;;;;7.35;5.43;;;25.30;82.20;;;;;;5099124;28;20065;-77
2021/06/11 10:02:19;;;;;;;6.63;5.47;;;25.50;70.30;;;;;;5095754;28;20520;-77
2021/06/11 10:04:45;;;;;;;7.45;6.55;;;25.50;69.10;;;;;;5080515;28;20035;-77
2021/06/11 10:07:13;;;;;;;7.47;5.53;;;25.50;73.80;;;;;;5106141;28;20036;-77
2021/06/11 10:09:39;;;;;;;5.60;5.07;;;25.60;77.50;;;;;;5101588;28;20030;-77
2021/06/11 10:12:06;;;;;;;6.72;5.97;;;25.70;79.00;;;;;;5102953;28;20039;-77
2021/06/11 10:14:34;;;;;;;5.32;4.82;;;25.70;73.00;;;;;;5103735;28;20027;-78
2021/06/11 10:17:01;;;;;;;5.38;4.88;;;25.60;75.10;;;;;;5105483;28;20379;-77
2021/06/11 10:19:28;;;;;;;6.07;5.47;;;25.50;77.70;;;;;;5105071;28;20108;-77
2021/06/11 10:21:54;;;;;;;6.57;5.20;;;25.40;79.90;;;;;;5099364;28;20165;-77
2021/06/11 10:24:21;;;;;;;5.60;4.90;;;25.30;78.40;;;;;;5105753;28;20032;-77
2021/06/11 10:26:48;;;;;;;5.80;5.30;;;25.10;80.50;;;;;;5100175;28;20410;-77
2021/06/11 10:29:17;;;;;;;6.32;5.82;;;25.00;82.00;;;;;;5095132;28;20036;-78
2021/06/11 10:31:43;;;;;;;6.30;5.75;;;24.90;77.70;;;;;;5102367;28;20172;-77
2021/06/11 10:34:10;;;;;;;6.32;5.72;;;24.70;78.60;;;;;;5103729;28;20032;-77
2021/06/11 10:36:42;;;;;;;7.07;6.40;;;24.70;79.20;;;;;;5104717;28;20033;-77
2021/06/11 10:39:12;;;;;;;5.38;4.97;;;24.80;85.10;;;;;;5106901;28;20085;-77
2021/06/11 10:42:03;;;;;;;5.47;4.93;;;24.90;82.50;;;;;;5103430;28;20028;-78
2021/06/11 10:44:46;;;;;;;5.07;4.60;;;25.10;84.90;;;;;;5112888;28;20027;-77
2021/06/11 10:47:17;;;;;;;5.57;4.80;;;25.40;80.60;;;;;;5108229;28;20130;-77
2021/06/11 10:50:11;;;;;;;5.65;4.75;;;25.60;77.70;;;;;;5101410;28;20024;-78
2021/06/11 10:52:44;;;;;;;5.30;4.80;;;25.80;72.80;;;;;;5102298;28;20105;-79
2021/06/11 10:55:23;;;;;;;7.18;4.63;;;25.90;69.00;;;;;;5101443;28;20032;-78
2021/06/11 10:57:52;;;;;;;6.40;5.80;;;26.10;72.60;;;;;;5085282;28;20109;-78
2021/06/11 11:00:26;;;;;;;6.75;5.28;;;26.30;71.70;;;;;;5102412;28;20097;-78
2021/06/11 11:02:54;;;;;;;5.50;5.00;;;26.20;72.40;;;;;;5102194;28;20652;-78
2021/06/11 11:05:41;;;;;;;5.47;4.97;;;26.10;73.40;;;;;;5107629;28;20690;-78
2021/06/11 11:08:10;;;;;;;5.25;4.13;;;25.90;67.60;;;;;;5103498;28;20023;-77
2021/06/11 11:10:48;;;;;;;4.78;4.38;;;25.90;71.40;;;;;;5099227;28;20059;-77
2021/06/11 11:13:16;;;;;;;4.55;4.15;;;25.80;77.70;;;;;;5114710;28;20035;-78
2021/06/11 11:15:51;;;;;;;5.63;4.20;;;25.70;71.60;;;;;;5113814;28;20043;-78
2021/06/11 11:18:40;;;;;;;6.18;4.50;;;25.70;79.00;;;;;;5111345;28;20031;-78
2021/06/11 11:21:29;;;;;;;5.20;4.80;;;25.90;77.60;;;;;;5106230;28;20069;-79
2021/06/11 11:24:00;;;;;;;4.68;4.28;;;26.00;72.00;;;;;;5099659;28;20115;-78
2021/06/11 11:26:40;;;;;;;4.70;4.28;;;26.20;74.80;;;;;;5089602;28;20042;-78
2021/06/11 11:29:06;;;;;;;5.07;4.53;;;26.50;75.00;;;;;;5108506;28;20032;-78
2021/06/11 11:31:32;;;;;;;6.05;4.38;;;26.70;76.80;;;;;;5101332;28;20031;-78
2021/06/11 11:33:58;;;;;;;6.10;4.40;;;26.80;76.50;;;;;;5105287;28;20035;-79
2021/06/11 11:36:24;;;;;;;4.65;4.07;;;27.00;68.50;;;;;;5098472;28;20032;-78
2021/06/11 11:38:50;;;;;;;4.53;4.07;;;27.20;71.70;;;;;;5113718;28;20047;-79
2021/06/11 11:41:16;;;;;;;4.60;4.05;;;27.60;69.90;;;;;;5103357;28;20120;-81
2021/06/11 11:43:42;;;;;;;4.10;3.80;;;27.80;73.00;;;;;;5082151;28;20020;-79
2021/06/11 11:46:07;;;;;;;4.10;3.80;;;28.10;73.90;;;;;;5108181;28;20042;-78
2021/06/11 11:48:33;;;;;;;4.50;4.05;;;28.20;69.10;;;;;;5112163;28;20031;-79
2021/06/11 11:50:59;;;;;;;4.47;4.07;;;28.40;72.60;;;;;;5096651;28;20027;-79
2021/06/11 11:53:25;;;;;;;3.80;3.50;;;28.60;65.40;;;;;;5115308;28;20028;-78
2021/06/11 11:55:50;;;;;;;5.00;3.83;;;28.90;64.80;;;;;;5104379;28;20077;-80
2021/06/11 11:58:16;;;;;;;4.07;3.33;;;29.00;65.00;;;;;;5104779;28;20044;-79
2021/06/11 12:00:42;;;;;;;4.38;3.97;;;29.30;61.60;;;;;;5107364;28;20036;-80
2021/06/11 12:03:08;;;;;;;4.30;3.90;;;29.50;65.20;;;;;;5109030;28;20633;-79
2021/06/11 12:05:34;;;;;;;4.28;3.75;;;29.70;66.40;;;;;;5102120;28;20055;-79
2021/06/11 12:07:59;;;;;;;3.95;3.55;;;30.00;63.50;;;;;;5093015;28;20028;-81
2021/06/11 12:10:26;;;;;;;3.80;3.53;;;30.20;66.50;;;;;;5105181;28;20059;-80
2021/06/11 12:12:53;;;;;;;4.38;3.97;;;30.40;58.30;;;;;;5088419;28;20024;-79
2021/06/11 12:15:19;;;;;;;3.70;3.40;;;30.30;62.80;;;;;;5116411;28;20043;-79
2021/06/11 12:17:44;;;;;;;3.60;2.85;;;30.40;60.10;;;;;;5107951;28;20104;-80
2021/06/11 12:20:11;;;;;;;3.20;3.00;;;30.60;61.10;;;;;;5099804;28;20040;-78
2021/06/11 12:22:37;;;;;;;3.33;2.85;;;30.70;62.50;;;;;;5099937;28;20008;-78
2021/06/11 12:25:04;;;;;;;3.28;3.05;;;31.00;61.10;;;;;;5099551;27;20036;-79
2021/06/11 12:27:29;;;;;;;3.17;2.97;;;31.10;56.60;;;;;;5092652;28;20023;-79
2021/06/11 12:29:55;;;;;;;2.78;2.58;;;31.00;52.70;;;;;;5112207;28;20711;-79
2021/06/11 12:32:21;;;;;;;2.92;2.72;;;31.00;54.20;;;;;;5113351;28;20031;-78
2021/06/11 12:34:46;;;;;;;3.17;2.85;;;31.00;55.80;;;;;;5111123;27;20039;-78
2021/06/11 12:37:12;;;;;;;2.80;2.60;;;31.00;57.40;;;;;;5094414;28;20072;-79
2021/06/11 12:39:38;;;;;;;2.85;2.65;;;31.00;58.60;;;;;;5086404;28;20024;-79
2021/06/11 12:42:15;;;;;;;2.40;2.30;;;30.90;53.20;;;;;;5111886;28;20299;-79
2021/06/11 12:44:44;;;;;;;2.88;2.45;;;31.00;56.10;;;;;;5099899;28;20074;-79
2021/06/11 12:47:13;;;;;;;2.55;2.17;;;31.10;54.30;;;;;;5109589;28;20379;-78
2021/06/11 12:49:42;;;;;;;2.85;2.22;;;31.30;49.00;;;;;;5100740;28;20076;-78
2021/06/11 12:52:09;;;;;;;2.13;2.00;;;31.20;50.80;;;;;;5104419;28;20043;-79
2021/06/11 12:54:35;;;;;;;2.00;1.90;;;31.00;49.40;;;;;;5104223;28;20525;-79
2021/06/11 12:57:01;;;;;;;2.28;2.00;;;31.20;53.00;;;;;;5112164;28;20046;-79